sensor_id;sensor_type;location;lat;lon;timestamp;P1;durP1;ratioP1;P2;durP2;ratioP2
65667;SDS011;52369;52.542;13.232;2022-12-29T00:01:00;4.50;;;2.03;;
65667;SDS011;52369;52.542;13.232;2022-12-29T00:03:26;3.50;;;2.13;;
65667;SDS011;52369;52.542;13.232;2022-12-29T00:05:56;4.32;;;2.20;;
65667;SDS011;52369;52.542;13.232;2022-12-29T00:08:22;3.65;;;1.88;;
65667;SDS011;52369;52.542;13.232;2022-12-29T00:11:04;4.75;;;2.42;;
65667;SDS011;52369;52.542;13.232;2022-12-29T00:13:30;4.13;;;2.25;;
65667;SDS011;52369;52.542;13.232;2022-12-29T00:16:15;3.50;;;1.85;;
65667;SDS011;52369;52.542;13.232;2022-12-29T00:18:41;5.88;;;2.13;;
65667;SDS011;52369;52.542;13.232;2022-12-29T00:21:07;7.50;;;2.15;;
65667;SDS011;52369;52.542;13.232;2022-12-29T00:23:54;2.95;;;2.28;;
65667;SDS011;52369;52.542;13.232;2022-12-29T00:26:53;3.22;;;1.50;;
65667;SDS011;52369;52.542;13.232;2022-12-29T00:29:39;5.53;;;2.20;;
65667;SDS011;52369;52.542;13.232;2022-12-29T00:32:24;4.55;;;2.15;;
65667;SDS011;52369;52.542;13.232;2022-12-29T00:35:09;3.80;;;2.00;;
65667;SDS011;52369;52.542;13.232;2022-12-29T00:37:40;3.15;;;1.85;;
65667;SDS011;52369;52.542;13.232;2022-12-29T00:40:26;4.85;;;2.08;;
65667;SDS011;52369;52.542;13.232;2022-12-29T00:43:10;3.50;;;2.00;;
65667;SDS011;52369;52.542;13.232;2022-12-29T00:45:55;3.10;;;1.80;;
65667;SDS011;52369;52.542;13.232;2022-12-29T00:48:21;3.05;;;1.90;;
65667;SDS011;52369;52.542;13.232;2022-12-29T00:51:06;3.97;;;1.95;;
65667;SDS011;52369;52.542;13.232;2022-12-29T00:53:32;3.78;;;2.05;;
65667;SDS011;52369;52.542;13.232;2022-12-29T00:55:59;3.15;;;2.15;;
65667;SDS011;52369;52.542;13.232;2022-12-29T00:58:28;4.80;;;2.30;;
65667;SDS011;52369;52.542;13.232;2022-12-29T01:01:04;4.45;;;2.33;;
65667;SDS011;52369;52.542;13.232;2022-12-29T01:03:31;2.65;;;1.90;;
65667;SDS011;52369;52.542;13.232;2022-12-29T01:05:59;4.57;;;2.15;;
65667;SDS011;52369;52.542;13.232;2022-12-29T01:08:27;5.30;;;2.10;;
65667;SDS011;52369;52.542;13.232;2022-12-29T01:13:25;2.38;;;1.75;;
65667;SDS011;52369;52.542;13.232;2022-12-29T01:15:51;2.70;;;1.80;;
65667;SDS011;52369;52.542;13.232;2022-12-29T01:18:18;3.75;;;2.20;;
65667;SDS011;52369;52.542;13.232;2022-12-29T01:20:44;3.38;;;2.10;;
65667;SDS011;52369;52.542;13.232;2022-12-29T01:23:10;5.00;;;2.10;;
65667;SDS011;52369;52.542;13.232;2022-12-29T01:25:36;3.67;;;2.00;;
65667;SDS011;52369;52.542;13.232;2022-12-29T01:28:02;2.88;;;1.80;;
65667;SDS011;52369;52.542;13.232;2022-12-29T01:30:28;3.17;;;2.15;;
65667;SDS011;52369;52.542;13.232;2022-12-29T01:32:54;3.05;;;1.80;;
65667;SDS011;52369;52.542;13.232;2022-12-29T01:35:20;2.90;;;1.90;;
65667;SDS011;52369;52.542;13.232;2022-12-29T01:37:46;4.72;;;2.00;;
65667;SDS011;52369;52.542;13.232;2022-12-29T01:40:12;4.53;;;2.03;;
65667;SDS011;52369;52.542;13.232;2022-12-29T01:42:38;4.20;;;2.00;;
65667;SDS011;52369;52.542;13.232;2022-12-29T01:47:41;3.35;;;2.03;;
65667;SDS011;52369;52.542;13.232;2022-12-29T01:50:10;3.95;;;1.73;;
65667;SDS011;52369;52.542;13.232;2022-12-29T01:52:38;3.05;;;2.00;;
65667;SDS011;52369;52.542;13.232;2022-12-29T01:55:06;4.47;;;2.00;;
65667;SDS011;52369;52.542;13.232;2022-12-29T01:57:36;7.95;;;2.70;;
65667;SDS011;52369;52.542;13.232;2022-12-29T02:00:11;3.15;;;1.73;;
65667;SDS011;52369;52.542;13.232;2022-12-29T02:02:38;3.42;;;2.15;;
65667;SDS011;52369;52.542;13.232;2022-12-29T02:05:07;4.32;;;2.13;;
65667;SDS011;52369;52.542;13.232;2022-12-29T02:07:35;3.95;;;1.95;;
65667;SDS011;52369;52.542;13.232;2022-12-29T02:10:03;4.35;;;2.20;;
65667;SDS011;52369;52.542;13.232;2022-12-29T02:12:29;4.25;;;2.22;;
65667;SDS011;52369;52.542;13.232;2022-12-29T02:14:56;2.47;;;1.98;;
65667;SDS011;52369;52.542;13.232;2022-12-29T02:20:05;2.22;;;1.80;;
65667;SDS011;52369;52.542;13.232;2022-12-29T02:30:04;5.13;;;1.67;;
65667;SDS011;52369;52.542;13.232;2022-12-29T02:35:20;3.17;;;1.83;;
65667;SDS011;52369;52.542;13.232;2022-12-29T02:37:55;3.28;;;1.80;;
65667;SDS011;52369;52.542;13.232;2022-12-29T02:40:31;3.10;;;2.05;;
65667;SDS011;52369;52.542;13.232;2022-12-29T02:43:03;2.95;;;2.00;;
65667;SDS011;52369;52.542;13.232;2022-12-29T02:45:39;4.60;;;2.13;;
65667;SDS011;52369;52.542;13.232;2022-12-29T02:48:18;3.22;;;1.85;;
65667;SDS011;52369;52.542;13.232;2022-12-29T02:51:50;3.42;;;1.80;;
65667;SDS011;52369;52.542;13.232;2022-12-29T02:53:42;4.63;;;1.90;;
65667;SDS011;52369;52.542;13.232;2022-12-29T02:56:27;3.65;;;2.03;;
65667;SDS011;52369;52.542;13.232;2022-12-29T02:58:53;4.13;;;2.17;;
65667;SDS011;52369;52.542;13.232;2022-12-29T03:07:30;4.28;;;2.13;;
65667;SDS011;52369;52.542;13.232;2022-12-29T03:10:00;2.58;;;1.63;;
65667;SDS011;52369;52.542;13.232;2022-12-29T03:15:13;3.60;;;2.05;;
65667;SDS011;52369;52.542;13.232;2022-12-29T03:18:07;2.17;;;1.70;;
65667;SDS011;52369;52.542;13.232;2022-12-29T03:20:55;6.10;;;2.00;;
65667;SDS011;52369;52.542;13.232;2022-12-29T03:23:23;2.70;;;1.92;;
65667;SDS011;52369;52.542;13.232;2022-12-29T03:25:54;2.30;;;1.70;;
65667;SDS011;52369;52.542;13.232;2022-12-29T03:28:25;3.67;;;2.05;;
65667;SDS011;52369;52.542;13.232;2022-12-29T03:30:53;3.58;;;1.73;;
65667;SDS011;52369;52.542;13.232;2022-12-29T03:33:23;3.22;;;1.85;;
65667;SDS011;52369;52.542;13.232;2022-12-29T03:35:50;2.33;;;1.63;;
65667;SDS011;52369;52.542;13.232;2022-12-29T03:38:19;2.13;;;1.80;;
65667;SDS011;52369;52.542;13.232;2022-12-29T03:40:50;3.83;;;2.00;;
65667;SDS011;52369;52.542;13.232;2022-12-29T03:43:18;3.00;;;1.77;;
65667;SDS011;52369;52.542;13.232;2022-12-29T03:45:44;2.28;;;1.70;;
65667;SDS011;52369;52.542;13.232;2022-12-29T03:48:10;3.05;;;1.65;;
65667;SDS011;52369;52.542;13.232;2022-12-29T03:50:36;2.67;;;1.35;;
65667;SDS011;52369;52.542;13.232;2022-12-29T03:53:02;1.63;;;1.30;;
65667;SDS011;52369;52.542;13.232;2022-12-29T03:55:28;6.22;;;2.10;;
65667;SDS011;52369;52.542;13.232;2022-12-29T03:57:54;3.20;;;1.80;;
65667;SDS011;52369;52.542;13.232;2022-12-29T04:00:20;2.42;;;1.90;;
65667;SDS011;52369;52.542;13.232;2022-12-29T04:02:46;3.50;;;2.08;;
65667;SDS011;52369;52.542;13.232;2022-12-29T04:05:12;2.92;;;1.80;;
65667;SDS011;52369;52.542;13.232;2022-12-29T04:07:38;3.08;;;1.85;;
65667;SDS011;52369;52.542;13.232;2022-12-29T04:10:05;3.35;;;1.80;;
65667;SDS011;52369;52.542;13.232;2022-12-29T04:12:31;3.78;;;1.90;;
65667;SDS011;52369;52.542;13.232;2022-12-29T04:14:57;2.83;;;1.80;;
65667;SDS011;52369;52.542;13.232;2022-12-29T04:17:23;3.78;;;1.98;;
65667;SDS011;52369;52.542;13.232;2022-12-29T04:19:49;3.65;;;2.00;;
65667;SDS011;52369;52.542;13.232;2022-12-29T04:22:15;4.07;;;1.75;;
65667;SDS011;52369;52.542;13.232;2022-12-29T04:24:41;2.70;;;1.92;;
65667;SDS011;52369;52.542;13.232;2022-12-29T04:27:07;3.63;;;1.85;;
65667;SDS011;52369;52.542;13.232;2022-12-29T04:29:33;4.15;;;2.08;;
65667;SDS011;52369;52.542;13.232;2022-12-29T04:31:59;4.60;;;2.30;;
65667;SDS011;52369;52.542;13.232;2022-12-29T04:34:25;3.03;;;1.60;;
65667;SDS011;52369;52.542;13.232;2022-12-29T04:36:51;3.80;;;1.83;;
65667;SDS011;52369;52.542;13.232;2022-12-29T04:39:17;3.88;;;2.05;;
65667;SDS011;52369;52.542;13.232;2022-12-29T04:41:43;2.78;;;1.95;;
65667;SDS011;52369;52.542;13.232;2022-12-29T04:44:09;2.92;;;1.60;;
65667;SDS011;52369;52.542;13.232;2022-12-29T04:46:35;2.85;;;1.90;;
65667;SDS011;52369;52.542;13.232;2022-12-29T04:49:01;2.20;;;1.80;;
65667;SDS011;52369;52.542;13.232;2022-12-29T04:51:33;3.83;;;2.00;;
65667;SDS011;52369;52.542;13.232;2022-12-29T04:53:59;1.88;;;1.67;;
65667;SDS011;52369;52.542;13.232;2022-12-29T04:56:25;2.75;;;1.48;;
65667;SDS011;52369;52.542;13.232;2022-12-29T04:58:51;2.92;;;1.88;;
65667;SDS011;52369;52.542;13.232;2022-12-29T05:01:17;3.05;;;1.90;;
65667;SDS011;52369;52.542;13.232;2022-12-29T05:03:43;2.75;;;1.70;;
65667;SDS011;52369;52.542;13.232;2022-12-29T05:06:09;2.50;;;1.73;;
65667;SDS011;52369;52.542;13.232;2022-12-29T05:08:35;3.17;;;1.90;;
65667;SDS011;52369;52.542;13.232;2022-12-29T05:11:01;3.92;;;1.92;;
65667;SDS011;52369;52.542;13.232;2022-12-29T05:13:27;2.50;;;1.83;;
65667;SDS011;52369;52.542;13.232;2022-12-29T05:15:53;2.63;;;1.60;;
65667;SDS011;52369;52.542;13.232;2022-12-29T05:18:19;2.65;;;1.90;;
65667;SDS011;52369;52.542;13.232;2022-12-29T05:20:46;1.75;;;1.65;;
65667;SDS011;52369;52.542;13.232;2022-12-29T05:23:12;4.30;;;2.00;;
65667;SDS011;52369;52.542;13.232;2022-12-29T05:25:38;2.88;;;2.10;;
65667;SDS011;52369;52.542;13.232;2022-12-29T05:28:04;2.83;;;1.73;;
65667;SDS011;52369;52.542;13.232;2022-12-29T05:30:30;2.20;;;1.60;;
65667;SDS011;52369;52.542;13.232;2022-12-29T05:32:57;5.68;;;1.95;;
65667;SDS011;52369;52.542;13.232;2022-12-29T05:35:23;2.95;;;1.98;;
65667;SDS011;52369;52.542;13.232;2022-12-29T05:37:49;2.33;;;1.65;;
65667;SDS011;52369;52.542;13.232;2022-12-29T05:40:15;4.28;;;1.70;;
65667;SDS011;52369;52.542;13.232;2022-12-29T05:42:41;4.40;;;2.40;;
65667;SDS011;52369;52.542;13.232;2022-12-29T05:45:07;4.03;;;2.13;;
65667;SDS011;52369;52.542;13.232;2022-12-29T05:47:34;2.90;;;1.83;;
65667;SDS011;52369;52.542;13.232;2022-12-29T05:50:00;2.78;;;1.98;;
65667;SDS011;52369;52.542;13.232;2022-12-29T05:52:26;2.05;;;1.70;;
65667;SDS011;52369;52.542;13.232;2022-12-29T05:54:52;2.55;;;1.70;;
65667;SDS011;52369;52.542;13.232;2022-12-29T05:57:18;3.80;;;1.92;;
65667;SDS011;52369;52.542;13.232;2022-12-29T05:59:44;5.80;;;2.33;;
65667;SDS011;52369;52.542;13.232;2022-12-29T06:02:10;2.45;;;1.45;;
65667;SDS011;52369;52.542;13.232;2022-12-29T06:04:36;3.53;;;2.13;;
65667;SDS011;52369;52.542;13.232;2022-12-29T06:07:02;3.42;;;1.80;;
65667;SDS011;52369;52.542;13.232;2022-12-29T06:09:28;3.05;;;1.88;;
65667;SDS011;52369;52.542;13.232;2022-12-29T06:11:54;3.92;;;2.17;;
65667;SDS011;52369;52.542;13.232;2022-12-29T06:14:20;3.13;;;2.20;;
65667;SDS011;52369;52.542;13.232;2022-12-29T06:16:46;2.22;;;1.60;;
65667;SDS011;52369;52.542;13.232;2022-12-29T06:19:12;3.28;;;1.80;;
65667;SDS011;52369;52.542;13.232;2022-12-29T06:21:39;2.97;;;1.75;;
65667;SDS011;52369;52.542;13.232;2022-12-29T06:24:05;2.22;;;1.70;;
65667;SDS011;52369;52.542;13.232;2022-12-29T06:26:31;4.68;;;1.83;;
65667;SDS011;52369;52.542;13.232;2022-12-29T06:28:57;2.72;;;1.90;;
65667;SDS011;52369;52.542;13.232;2022-12-29T06:31:23;3.28;;;1.83;;
65667;SDS011;52369;52.542;13.232;2022-12-29T06:33:49;2.85;;;1.88;;
65667;SDS011;52369;52.542;13.232;2022-12-29T06:36:15;3.22;;;1.60;;
65667;SDS011;52369;52.542;13.232;2022-12-29T06:38:41;2.55;;;1.50;;
65667;SDS011;52369;52.542;13.232;2022-12-29T06:41:07;3.08;;;1.80;;
65667;SDS011;52369;52.542;13.232;2022-12-29T06:43:33;1.88;;;1.33;;
65667;SDS011;52369;52.542;13.232;2022-12-29T06:46:02;2.42;;;1.58;;
65667;SDS011;52369;52.542;13.232;2022-12-29T06:48:29;3.78;;;1.67;;
65667;SDS011;52369;52.542;13.232;2022-12-29T06:50:55;2.45;;;1.45;;
65667;SDS011;52369;52.542;13.232;2022-12-29T06:53:21;3.42;;;1.70;;
65667;SDS011;52369;52.542;13.232;2022-12-29T06:55:47;2.42;;;1.92;;
65667;SDS011;52369;52.542;13.232;2022-12-29T06:58:13;1.65;;;1.48;;
65667;SDS011;52369;52.542;13.232;2022-12-29T07:00:39;2.83;;;2.00;;
65667;SDS011;52369;52.542;13.232;2022-12-29T07:03:05;3.67;;;1.60;;
65667;SDS011;52369;52.542;13.232;2022-12-29T07:05:31;3.72;;;1.73;;
65667;SDS011;52369;52.542;13.232;2022-12-29T07:07:57;2.60;;;1.58;;
65667;SDS011;52369;52.542;13.232;2022-12-29T07:10:24;2.60;;;1.75;;
65667;SDS011;52369;52.542;13.232;2022-12-29T07:12:50;2.25;;;1.65;;
65667;SDS011;52369;52.542;13.232;2022-12-29T07:15:16;2.55;;;1.95;;
65667;SDS011;52369;52.542;13.232;2022-12-29T07:17:42;3.83;;;1.60;;
65667;SDS011;52369;52.542;13.232;2022-12-29T07:20:08;2.97;;;1.77;;
65667;SDS011;52369;52.542;13.232;2022-12-29T07:22:34;2.83;;;1.55;;
65667;SDS011;52369;52.542;13.232;2022-12-29T07:25:00;3.38;;;1.67;;
65667;SDS011;52369;52.542;13.232;2022-12-29T07:27:28;4.15;;;1.60;;
65667;SDS011;52369;52.542;13.232;2022-12-29T07:29:54;2.38;;;1.58;;
65667;SDS011;52369;52.542;13.232;2022-12-29T07:32:20;3.20;;;1.63;;
65667;SDS011;52369;52.542;13.232;2022-12-29T07:34:46;2.60;;;1.35;;
65667;SDS011;52369;52.542;13.232;2022-12-29T07:37:12;3.90;;;1.70;;
65667;SDS011;52369;52.542;13.232;2022-12-29T07:39:39;3.33;;;1.58;;
65667;SDS011;52369;52.542;13.232;2022-12-29T07:42:05;1.67;;;1.20;;
65667;SDS011;52369;52.542;13.232;2022-12-29T07:44:31;2.75;;;1.50;;
65667;SDS011;52369;52.542;13.232;2022-12-29T07:46:57;1.55;;;1.45;;
65667;SDS011;52369;52.542;13.232;2022-12-29T07:49:23;2.42;;;1.35;;
65667;SDS011;52369;52.542;13.232;2022-12-29T07:51:49;4.43;;;1.42;;
65667;SDS011;52369;52.542;13.232;2022-12-29T07:54:15;2.42;;;1.20;;
65667;SDS011;52369;52.542;13.232;2022-12-29T07:56:43;2.83;;;1.50;;
65667;SDS011;52369;52.542;13.232;2022-12-29T07:59:09;2.55;;;1.60;;
65667;SDS011;52369;52.542;13.232;2022-12-29T08:01:37;2.30;;;1.52;;
65667;SDS011;52369;52.542;13.232;2022-12-29T08:04:03;2.40;;;1.30;;
65667;SDS011;52369;52.542;13.232;2022-12-29T08:06:29;2.95;;;1.50;;
65667;SDS011;52369;52.542;13.232;2022-12-29T08:08:55;1.98;;;1.50;;
65667;SDS011;52369;52.542;13.232;2022-12-29T08:11:22;2.97;;;2.03;;
65667;SDS011;52369;52.542;13.232;2022-12-29T08:13:48;2.60;;;1.45;;
65667;SDS011;52369;52.542;13.232;2022-12-29T08:16:14;1.58;;;1.25;;
65667;SDS011;52369;52.542;13.232;2022-12-29T08:18:40;2.45;;;1.70;;
65667;SDS011;52369;52.542;13.232;2022-12-29T08:21:06;2.72;;;1.60;;
65667;SDS011;52369;52.542;13.232;2022-12-29T08:23:32;2.63;;;1.52;;
65667;SDS011;52369;52.542;13.232;2022-12-29T08:26:01;4.22;;;1.50;;
65667;SDS011;52369;52.542;13.232;2022-12-29T08:28:28;2.83;;;1.70;;
65667;SDS011;52369;52.542;13.232;2022-12-29T08:30:56;2.05;;;1.58;;
65667;SDS011;52369;52.542;13.232;2022-12-29T08:33:22;1.65;;;1.33;;
65667;SDS011;52369;52.542;13.232;2022-12-29T08:35:48;3.00;;;1.40;;
65667;SDS011;52369;52.542;13.232;2022-12-29T08:38:14;2.60;;;1.67;;
65667;SDS011;52369;52.542;13.232;2022-12-29T08:40:40;2.63;;;1.83;;
65667;SDS011;52369;52.542;13.232;2022-12-29T08:43:06;1.88;;;1.48;;
65667;SDS011;52369;52.542;13.232;2022-12-29T08:45:32;2.47;;;1.70;;
65667;SDS011;52369;52.542;13.232;2022-12-29T08:47:58;2.75;;;1.77;;
65667;SDS011;52369;52.542;13.232;2022-12-29T08:50:24;1.98;;;1.35;;
65667;SDS011;52369;52.542;13.232;2022-12-29T08:52:50;2.22;;;1.80;;
65667;SDS011;52369;52.542;13.232;2022-12-29T08:55:16;1.67;;;1.20;;
65667;SDS011;52369;52.542;13.232;2022-12-29T08:57:42;2.05;;;1.38;;
65667;SDS011;52369;52.542;13.232;2022-12-29T09:00:09;2.03;;;1.35;;
65667;SDS011;52369;52.542;13.232;2022-12-29T09:02:35;3.92;;;1.67;;
65667;SDS011;52369;52.542;13.232;2022-12-29T09:05:01;1.67;;;1.42;;
65667;SDS011;52369;52.542;13.232;2022-12-29T09:07:27;1.92;;;1.33;;
65667;SDS011;52369;52.542;13.232;2022-12-29T09:09:53;1.58;;;1.48;;
65667;SDS011;52369;52.542;13.232;2022-12-29T09:12:19;2.78;;;1.67;;
65667;SDS011;52369;52.542;13.232;2022-12-29T09:14:48;2.92;;;1.67;;
65667;SDS011;52369;52.542;13.232;2022-12-29T09:17:14;3.90;;;1.40;;
65667;SDS011;52369;52.542;13.232;2022-12-29T09:19:58;2.33;;;1.30;;
65667;SDS011;52369;52.542;13.232;2022-12-29T09:22:24;1.95;;;1.30;;
65667;SDS011;52369;52.542;13.232;2022-12-29T09:24:50;2.03;;;1.30;;
65667;SDS011;52369;52.542;13.232;2022-12-29T09:27:16;2.80;;;1.30;;
65667;SDS011;52369;52.542;13.232;2022-12-29T09:29:42;2.03;;;1.42;;
65667;SDS011;52369;52.542;13.232;2022-12-29T09:32:08;1.55;;;0.95;;
65667;SDS011;52369;52.542;13.232;2022-12-29T09:34:34;2.28;;;1.40;;
65667;SDS011;52369;52.542;13.232;2022-12-29T09:37:00;2.60;;;1.58;;
65667;SDS011;52369;52.542;13.232;2022-12-29T09:39:26;2.17;;;1.30;;
65667;SDS011;52369;52.542;13.232;2022-12-29T09:44:28;1.60;;;1.50;;
65667;SDS011;52369;52.542;13.232;2022-12-29T09:46:57;3.97;;;1.40;;
65667;SDS011;52369;52.542;13.232;2022-12-29T09:51:53;1.85;;;1.23;;
65667;SDS011;52369;52.542;13.232;2022-12-29T09:54:23;1.38;;;1.27;;
65667;SDS011;52369;52.542;13.232;2022-12-29T09:56:50;2.47;;;1.13;;
65667;SDS011;52369;52.542;13.232;2022-12-29T09:59:20;2.85;;;1.50;;
65667;SDS011;52369;52.542;13.232;2022-12-29T10:01:49;1.77;;;1.33;;
65667;SDS011;52369;52.542;13.232;2022-12-29T10:04:17;2.00;;;1.45;;
65667;SDS011;52369;52.542;13.232;2022-12-29T10:24:19;3.13;;;1.25;;
65667;SDS011;52369;52.542;13.232;2022-12-29T10:26:46;2.88;;;1.45;;
65667;SDS011;52369;52.542;13.232;2022-12-29T10:29:17;2.75;;;1.52;;
65667;SDS011;52369;52.542;13.232;2022-12-29T10:31:46;2.67;;;1.70;;
65667;SDS011;52369;52.542;13.232;2022-12-29T10:34:15;1.77;;;1.08;;
65667;SDS011;52369;52.542;13.232;2022-12-29T10:36:44;2.55;;;1.38;;
65667;SDS011;52369;52.542;13.232;2022-12-29T10:42:09;2.92;;;1.20;;
65667;SDS011;52369;52.542;13.232;2022-12-29T10:44:36;2.67;;;1.33;;
65667;SDS011;52369;52.542;13.232;2022-12-29T10:47:06;3.00;;;1.38;;
65667;SDS011;52369;52.542;13.232;2022-12-29T10:49:37;1.75;;;1.05;;
65667;SDS011;52369;52.542;13.232;2022-12-29T10:52:04;1.63;;;1.35;;
65667;SDS011;52369;52.542;13.232;2022-12-29T10:57:23;3.15;;;1.55;;
65667;SDS011;52369;52.542;13.232;2022-12-29T10:59:50;3.08;;;1.15;;
65667;SDS011;52369;52.542;13.232;2022-12-29T11:02:26;4.65;;;1.40;;
65667;SDS011;52369;52.542;13.232;2022-12-29T11:05:02;2.22;;;1.17;;
65667;SDS011;52369;52.542;13.232;2022-12-29T11:07:30;1.95;;;1.27;;
65667;SDS011;52369;52.542;13.232;2022-12-29T11:10:16;1.25;;;1.05;;
65667;SDS011;52369;52.542;13.232;2022-12-29T11:12:42;1.50;;;1.05;;
65667;SDS011;52369;52.542;13.232;2022-12-29T11:15:20;3.22;;;1.20;;
65667;SDS011;52369;52.542;13.232;2022-12-29T11:17:47;2.58;;;1.42;;
65667;SDS011;52369;52.542;13.232;2022-12-29T11:22:55;2.67;;;1.30;;
65667;SDS011;52369;52.542;13.232;2022-12-29T11:25:21;2.45;;;0.98;;
65667;SDS011;52369;52.542;13.232;2022-12-29T11:27:54;1.15;;;1.08;;
65667;SDS011;52369;52.542;13.232;2022-12-29T11:30:25;1.85;;;1.10;;
65667;SDS011;52369;52.542;13.232;2022-12-29T11:32:52;1.55;;;1.10;;
65667;SDS011;52369;52.542;13.232;2022-12-29T11:35:35;3.13;;;1.05;;
65667;SDS011;52369;52.542;13.232;2022-12-29T11:38:01;3.28;;;1.08;;
65667;SDS011;52369;52.542;13.232;2022-12-29T11:40:28;4.53;;;1.58;;
65667;SDS011;52369;52.542;13.232;2022-12-29T11:42:55;3.38;;;1.45;;
65667;SDS011;52369;52.542;13.232;2022-12-29T11:45:25;2.75;;;1.20;;
65667;SDS011;52369;52.542;13.232;2022-12-29T11:47:53;2.28;;;1.25;;
65667;SDS011;52369;52.542;13.232;2022-12-29T11:50:24;1.80;;;1.02;;
65667;SDS011;52369;52.542;13.232;2022-12-29T11:52:57;2.58;;;1.08;;
65667;SDS011;52369;52.542;13.232;2022-12-29T11:55:24;1.60;;;0.80;;
65667;SDS011;52369;52.542;13.232;2022-12-29T11:57:51;3.38;;;1.00;;
65667;SDS011;52369;52.542;13.232;2022-12-29T12:00:19;1.48;;;0.98;;
65667;SDS011;52369;52.542;13.232;2022-12-29T12:08:09;1.50;;;1.00;;
65667;SDS011;52369;52.542;13.232;2022-12-29T12:15:59;1.20;;;0.80;;
65667;SDS011;52369;52.542;13.232;2022-12-29T12:20:54;1.55;;;0.77;;
65667;SDS011;52369;52.542;13.232;2022-12-29T12:26:15;2.17;;;0.85;;
65667;SDS011;52369;52.542;13.232;2022-12-29T12:31:18;1.08;;;0.98;;
65667;SDS011;52369;52.542;13.232;2022-12-29T12:33:48;3.05;;;1.30;;
65667;SDS011;52369;52.542;13.232;2022-12-29T12:44:20;3.10;;;1.17;;
65667;SDS011;52369;52.542;13.232;2022-12-29T12:52:20;4.75;;;2.42;;
65667;SDS011;52369;52.542;13.232;2022-12-29T12:55:02;1.38;;;0.70;;
65667;SDS011;52369;52.542;13.232;2022-12-29T13:15:59;1.13;;;0.73;;
65667;SDS011;52369;52.542;13.232;2022-12-29T13:18:31;1.40;;;0.70;;
65667;SDS011;52369;52.542;13.232;2022-12-29T13:28:57;1.92;;;1.02;;
65667;SDS011;52369;52.542;13.232;2022-12-29T13:36:33;1.33;;;0.90;;
65667;SDS011;52369;52.542;13.232;2022-12-29T13:41:33;2.67;;;0.82;;
65667;SDS011;52369;52.542;13.232;2022-12-29T13:44:01;3.42;;;1.20;;
65667;SDS011;52369;52.542;13.232;2022-12-29T13:46:29;1.25;;;0.85;;
65667;SDS011;52369;52.542;13.232;2022-12-29T13:49:01;1.80;;;1.13;;
65667;SDS011;52369;52.542;13.232;2022-12-29T13:51:31;1.10;;;1.00;;
65667;SDS011;52369;52.542;13.232;2022-12-29T13:56:32;1.58;;;1.10;;
65667;SDS011;52369;52.542;13.232;2022-12-29T14:03:57;1.10;;;1.02;;
65667;SDS011;52369;52.542;13.232;2022-12-29T14:06:31;3.72;;;1.88;;
65667;SDS011;52369;52.542;13.232;2022-12-29T14:09:00;1.58;;;1.33;;
65667;SDS011;52369;52.542;13.232;2022-12-29T14:11:30;6.22;;;3.42;;
65667;SDS011;52369;52.542;13.232;2022-12-29T14:13:57;3.67;;;1.75;;
65667;SDS011;52369;52.542;13.232;2022-12-29T14:16:33;1.30;;;1.00;;
65667;SDS011;52369;52.542;13.232;2022-12-29T14:19:04;4.88;;;1.30;;
65667;SDS011;52369;52.542;13.232;2022-12-29T14:21:30;3.50;;;1.95;;
65667;SDS011;52369;52.542;13.232;2022-12-29T14:26:43;13.70;;;5.22;;
65667;SDS011;52369;52.542;13.232;2022-12-29T14:29:15;9.43;;;3.47;;
65667;SDS011;52369;52.542;13.232;2022-12-29T14:31:42;9.20;;;2.92;;
65667;SDS011;52369;52.542;13.232;2022-12-29T14:39:03;1.48;;;1.20;;
65667;SDS011;52369;52.542;13.232;2022-12-29T14:41:31;4.85;;;2.20;;
65667;SDS011;52369;52.542;13.232;2022-12-29T14:44:02;3.72;;;1.63;;
65667;SDS011;52369;52.542;13.232;2022-12-29T14:47:07;4.40;;;1.63;;
65667;SDS011;52369;52.542;13.232;2022-12-29T14:49:28;3.75;;;1.55;;
65667;SDS011;52369;52.542;13.232;2022-12-29T14:52:04;4.97;;;2.00;;
65667;SDS011;52369;52.542;13.232;2022-12-29T14:56:58;3.92;;;1.70;;
65667;SDS011;52369;52.542;13.232;2022-12-29T14:59:24;3.78;;;1.80;;
65667;SDS011;52369;52.542;13.232;2022-12-29T15:01:52;2.10;;;1.20;;
65667;SDS011;52369;52.542;13.232;2022-12-29T15:04:23;2.33;;;1.52;;
65667;SDS011;52369;52.542;13.232;2022-12-29T15:06:50;1.77;;;1.20;;
65667;SDS011;52369;52.542;13.232;2022-12-29T15:09:22;2.78;;;1.10;;
65667;SDS011;52369;52.542;13.232;2022-12-29T15:11:56;1.92;;;1.10;;
65667;SDS011;52369;52.542;13.232;2022-12-29T15:14:31;1.83;;;0.98;;
65667;SDS011;52369;52.542;13.232;2022-12-29T15:16:57;2.63;;;1.20;;
65667;SDS011;52369;52.542;13.232;2022-12-29T15:19:24;3.90;;;1.50;;
65667;SDS011;52369;52.542;13.232;2022-12-29T15:21:50;2.30;;;1.00;;
65667;SDS011;52369;52.542;13.232;2022-12-29T15:24:16;1.27;;;0.88;;
65667;SDS011;52369;52.542;13.232;2022-12-29T15:26:44;2.28;;;1.00;;
65667;SDS011;52369;52.542;13.232;2022-12-29T15:31:56;1.15;;;0.93;;
65667;SDS011;52369;52.542;13.232;2022-12-29T15:34:23;2.08;;;1.08;;
65667;SDS011;52369;52.542;13.232;2022-12-29T15:36:49;2.35;;;1.00;;
65667;SDS011;52369;52.542;13.232;2022-12-29T15:39:19;1.17;;;0.90;;
65667;SDS011;52369;52.542;13.232;2022-12-29T15:41:53;2.72;;;1.10;;
65667;SDS011;52369;52.542;13.232;2022-12-29T15:44:39;2.72;;;1.35;;
65667;SDS011;52369;52.542;13.232;2022-12-29T15:47:05;2.88;;;1.65;;
65667;SDS011;52369;52.542;13.232;2022-12-29T15:49:32;2.40;;;1.25;;
65667;SDS011;52369;52.542;13.232;2022-12-29T15:51:58;3.63;;;1.55;;
65667;SDS011;52369;52.542;13.232;2022-12-29T15:54:24;3.50;;;1.50;;
65667;SDS011;52369;52.542;13.232;2022-12-29T15:56:53;2.70;;;1.75;;
65667;SDS011;52369;52.542;13.232;2022-12-29T16:01:48;3.17;;;1.42;;
65667;SDS011;52369;52.542;13.232;2022-12-29T16:04:14;6.22;;;1.35;;
65667;SDS011;52369;52.542;13.232;2022-12-29T16:06:44;4.43;;;1.25;;
65667;SDS011;52369;52.542;13.232;2022-12-29T16:09:17;4.00;;;1.73;;
65667;SDS011;52369;52.542;13.232;2022-12-29T16:11:44;5.20;;;1.60;;
65667;SDS011;52369;52.542;13.232;2022-12-29T16:14:16;1.75;;;0.88;;
65667;SDS011;52369;52.542;13.232;2022-12-29T16:16:43;3.08;;;1.00;;
65667;SDS011;52369;52.542;13.232;2022-12-29T16:19:13;2.60;;;1.20;;
65667;SDS011;52369;52.542;13.232;2022-12-29T16:21:40;2.55;;;1.08;;
65667;SDS011;52369;52.542;13.232;2022-12-29T16:24:19;1.65;;;0.90;;
65667;SDS011;52369;52.542;13.232;2022-12-29T16:26:47;2.88;;;1.10;;
65667;SDS011;52369;52.542;13.232;2022-12-29T16:29:13;3.15;;;0.93;;
65667;SDS011;52369;52.542;13.232;2022-12-29T16:34:42;1.90;;;0.90;;
65667;SDS011;52369;52.542;13.232;2022-12-29T16:37:24;4.45;;;0.93;;
65667;SDS011;52369;52.542;13.232;2022-12-29T16:39:51;4.05;;;0.80;;
65667;SDS011;52369;52.542;13.232;2022-12-29T16:42:36;2.35;;;1.00;;
65667;SDS011;52369;52.542;13.232;2022-12-29T16:47:47;2.65;;;0.95;;
65667;SDS011;52369;52.542;13.232;2022-12-29T16:50:18;4.63;;;1.60;;
65667;SDS011;52369;52.542;13.232;2022-12-29T16:52:48;2.47;;;1.20;;
65667;SDS011;52369;52.542;13.232;2022-12-29T16:55:16;1.85;;;0.80;;
65667;SDS011;52369;52.542;13.232;2022-12-29T16:57:42;4.30;;;1.27;;
65667;SDS011;52369;52.542;13.232;2022-12-29T17:03:04;2.13;;;1.20;;
65667;SDS011;52369;52.542;13.232;2022-12-29T17:05:31;4.18;;;1.23;;
65667;SDS011;52369;52.542;13.232;2022-12-29T17:07:57;3.30;;;0.90;;
65667;SDS011;52369;52.542;13.232;2022-12-29T17:10:27;1.95;;;1.17;;
65667;SDS011;52369;52.542;13.232;2022-12-29T17:13:13;2.05;;;0.90;;
65667;SDS011;52369;52.542;13.232;2022-12-29T17:15:39;3.72;;;1.10;;
65667;SDS011;52369;52.542;13.232;2022-12-29T17:18:06;1.20;;;0.63;;